KCMH Airport Diagram

We have created a template for each of the higher traffic airports in the vZID airspace. They include KCMH, KCRW, KCVG, KDAY, KIND, KLEX and KSDF. You wil find usefull information including the airport diagram, weather, and specific airport procedures.

KCMH Weather

[Source: ADDS]
METAR
KCMH 190751Z 20005KT 10SM OVC008 04/02 A3011 RMK AO2 SLP202 T00440022 =
TAF
KCMH 190538Z 1906/2006 24006KT P6SM OVC008 TEMPO 1909/1913 OVC012 FM191300 14004KT P6SM OVC250 FM191800 13006KT P6SM OVC150 FM200500 09006KT 4SM -RA BR OVC050 =
JSN Epic template designed by JoomlaShine.com